Time;durP1;ratioP1;P1;durP2;ratioP2;P2;SDS_P1;SDS_P2;PMS_P1;PMS_P2;Temp;Humidity;BMP_temperature;BMP_pressure;BME280_temperature;BME280_humidity;BME280_pressure;Samples;Min_cycle;Max_cycle;Signal;HPM_P1;HPM_P2
2023/10/23 00:02:24;;;;;;;7.78;2.70;;;;;;;9.93;100.00;100175.75;5070722;28;20048;-75
2023/10/23 00:04:54;;;;;;;6.30;2.67;;;;;;;9.90;100.00;100177.72;5065699;28;20041;-76
2023/10/23 00:07:22;;;;;;;6.27;2.67;;;;;;;9.84;100.00;100177.06;5062971;28;20052;-76
2023/10/23 00:09:51;;;;;;;6.65;3.00;;;;;;;9.66;100.00;100151.50;5069027;28;20072;-76
2023/10/23 00:12:18;;;;;;;7.30;2.90;;;;;;;9.66;100.00;100177.06;5062569;28;20048;-76
2023/10/23 00:14:46;;;;;;;6.57;2.88;;;;;;;9.68;100.00;100186.66;5065973;28;20063;-75
2023/10/23 00:17:14;;;;;;;8.60;3.08;;;;;;;9.58;100.00;100187.16;5051578;28;20048;-77
2023/10/23 00:19:42;;;;;;;7.95;3.28;;;;;;;9.56;100.00;100200.44;5071048;28;20074;-76
2023/10/23 00:22:12;;;;;;;9.48;3.30;;;;;;;9.56;100.00;100194.31;5070274;28;20504;-76
2023/10/23 00:24:41;;;;;;;5.03;2.50;;;;;;;9.42;100.00;100192.28;5048232;28;20076;-78
2023/10/23 00:27:08;;;;;;;7.32;3.85;;;;;;;9.34;100.00;100195.25;5062269;28;20041;-76
2023/10/23 00:29:36;;;;;;;9.43;3.42;;;;;;;9.40;100.00;100210.00;5065973;28;20048;-77
2023/10/23 00:32:06;;;;;;;8.40;3.50;;;;;;;9.31;100.00;100200.69;5068434;28;20136;-76
2023/10/23 00:34:35;;;;;;;8.80;3.50;;;;;;;9.34;100.00;100207.63;5066073;28;20115;-77
2023/10/23 00:37:03;;;;;;;7.93;3.05;;;;;;;9.36;100.00;100216.34;5059606;28;20112;-76
2023/10/23 00:39:33;;;;;;;8.63;3.63;;;;;;;9.23;100.00;100188.75;5070067;28;20573;-77
2023/10/23 00:42:00;;;;;;;9.50;3.42;;;;;;;9.48;100.00;100216.63;5065011;28;20065;-76
2023/10/23 00:44:30;;;;;;;8.80;3.35;;;;;;;9.48;100.00;100224.56;5069238;28;20040;-77
2023/10/23 00:46:58;;;;;;;8.30;3.42;;;;;;;9.30;100.00;100198.97;5050699;28;20056;-76
2023/10/23 00:49:27;;;;;;;7.35;3.72;;;;;;;9.27;100.00;100208.84;5063103;28;20071;-76
2023/10/23 00:51:55;;;;;;;7.68;3.30;;;;;;;9.09;100.00;100184.94;5067395;28;20055;-76
2023/10/23 00:54:24;;;;;;;6.78;3.25;;;;;;;9.06;100.00;100186.84;5063413;28;20044;-76
2023/10/23 00:56:54;;;;;;;6.10;3.20;;;;;;;9.23;100.00;100213.41;5061310;28;20585;-77
2023/10/23 00:59:23;;;;;;;10.82;3.80;;;;;;;9.26;100.00;100212.41;5065104;28;20044;-76
2023/10/23 01:01:51;;;;;;;7.10;3.40;;;;;;;9.18;100.00;100210.09;5067139;28;20077;-76
2023/10/23 01:04:19;;;;;;;5.50;2.90;;;;;;;9.19;100.00;100214.44;5068668;28;20143;-76
2023/10/23 01:06:49;;;;;;;7.70;3.20;;;;;;;9.14;100.00;100214.63;5053735;28;20139;-76
2023/10/23 01:09:18;;;;;;;6.43;3.30;;;;;;;9.20;100.00;100217.94;5066494;28;20555;-77
2023/10/23 01:11:46;;;;;;;10.20;3.25;;;;;;;9.18;100.00;100210.09;5067850;28;20067;-77
2023/10/23 01:14:16;;;;;;;5.88;3.00;;;;;;;9.14;100.00;100205.84;5036527;28;20063;-76
2023/10/23 01:16:45;;;;;;;7.90;3.28;;;;;;;9.12;100.00;100208.59;5061590;28;20059;-75
2023/10/23 01:19:13;;;;;;;6.70;3.40;;;;;;;9.07;100.00;100205.28;5072387;28;20087;-75
2023/10/23 01:21:41;;;;;;;6.65;3.00;;;;;;;9.11;100.00;100206.00;5070597;28;20062;-76
2023/10/23 01:24:15;;;;;;;6.65;2.95;;;;;;;9.03;100.00;100201.06;5066279;28;20064;-76
2023/10/23 01:26:44;;;;;;;6.55;3.20;;;;;;;8.96;100.00;100186.41;5056218;28;20055;-76
2023/10/23 01:29:12;;;;;;;5.28;2.80;;;;;;;8.88;100.00;100177.94;5064687;28;20067;-77
2023/10/23 01:31:40;;;;;;;6.32;3.15;;;;;;;9.04;100.00;100208.06;5073443;28;20114;-77
2023/10/23 01:34:09;;;;;;;8.27;3.65;;;;;;;8.96;100.00;100204.03;5069557;28;20677;-77
2023/10/23 01:36:37;;;;;;;6.40;3.05;;;;;;;8.93;100.00;100204.16;5062954;28;20109;-76
2023/10/23 01:39:06;;;;;;;9.43;3.38;;;;;;;8.98;100.00;100213.59;5067517;28;20036;-77
2023/10/23 01:41:34;;;;;;;8.32;3.05;;;;;;;8.91;100.00;100206.00;5070947;28;20077;-77
2023/10/23 01:44:03;;;;;;;9.32;3.58;;;;;;;8.95;100.00;100219.03;5069838;28;20132;-77
2023/10/23 01:46:31;;;;;;;10.00;3.20;;;;;;;8.99;100.00;100215.31;5064308;28;20896;-77
2023/10/23 01:48:59;;;;;;;5.97;3.17;;;;;;;8.81;100.00;100175.66;5073172;28;20405;-78
2023/10/23 01:51:27;;;;;;;8.82;3.10;;;;;;;9.01;100.00;100209.97;5082114;28;20037;-77
2023/10/23 01:53:55;;;;;;;10.38;3.78;;;;;;;8.86;100.00;100186.84;5074568;28;20136;-77
2023/10/23 01:56:23;;;;;;;12.82;4.97;;;;;;;9.08;100.00;100219.34;5075581;28;20102;-77
2023/10/23 01:58:51;;;;;;;16.55;7.47;;;;;;;8.93;100.00;100197.09;5076704;28;20112;-77
2023/10/23 02:01:22;;;;;;;14.02;6.20;;;;;;;8.91;100.00;100206.88;5074788;28;20040;-75
2023/10/23 02:03:52;;;;;;;13.45;5.10;;;;;;;8.95;100.00;100223.44;5081905;28;20037;-76
2023/10/23 02:06:20;;;;;;;12.57;5.75;;;;;;;8.58;100.00;100174.84;5089845;28;20044;-76
2023/10/23 02:08:49;;;;;;;12.80;5.72;;;;;;;8.83;100.00;100223.94;5077549;28;20143;-76
2023/10/23 02:11:17;;;;;;;13.27;6.45;;;;;;;8.77;100.00;100222.44;5071478;28;20049;-76
2023/10/23 02:13:45;;;;;;;17.02;6.60;;;;;;;8.76;100.00;100223.38;5074408;28;20548;-76
2023/10/23 02:16:13;;;;;;;14.70;5.78;;;;;;;8.70;100.00;100198.06;5074833;28;20076;-76
2023/10/23 02:18:42;;;;;;;13.68;6.05;;;;;;;8.81;100.00;100220.53;5072323;28;20056;-75
2023/10/23 02:21:11;;;;;;;12.85;6.05;;;;;;;8.78;100.00;100226.81;5073064;28;20493;-76
2023/10/23 02:23:40;;;;;;;10.80;5.35;;;;;;;8.74;100.00;100223.44;5072407;28;20037;-76
2023/10/23 02:26:23;;;;;;;10.85;5.20;;;;;;;8.61;100.00;100198.47;5069478;28;20045;-75
2023/10/23 02:28:51;;;;;;;13.27;5.40;;;;;;;8.62;100.00;100207.25;5067905;28;20051;-76
2023/10/23 02:31:20;;;;;;;13.18;5.47;;;;;;;8.73;100.00;100219.06;5069559;28;20040;-76
2023/10/23 02:33:50;;;;;;;11.10;4.63;;;;;;;8.60;100.00;100199.41;5073900;28;20054;-76
2023/10/23 02:36:18;;;;;;;12.73;4.93;;;;;;;8.62;100.00;100204.63;5069347;28;20391;-76
2023/10/23 02:38:48;;;;;;;12.75;4.80;;;;;;;8.60;100.00;100214.38;5068888;28;20049;-76
2023/10/23 02:41:17;;;;;;;10.20;4.88;;;;;;;8.58;100.00;100227.63;5069467;28;20086;-77
2023/10/23 02:43:45;;;;;;;8.40;4.80;;;;;;;8.54;100.00;100231.31;5070109;28;20041;-77
2023/10/23 02:46:13;;;;;;;9.75;5.22;;;;;;;8.51;100.00;100223.50;5068460;28;20090;-77
2023/10/23 02:48:42;;;;;;;8.85;4.35;;;;;;;8.56;100.00;100218.06;5066069;28;20060;-77
2023/10/23 02:51:12;;;;;;;11.20;4.90;;;;;;;8.50;100.00;100221.78;5085095;28;20071;-77
2023/10/23 02:53:40;;;;;;;12.02;5.28;;;;;;;8.48;100.00;100239.50;5070182;28;20068;-75
2023/10/23 02:56:10;;;;;;;12.50;4.82;;;;;;;8.43;100.00;100223.84;5074079;28;20055;-76
2023/10/23 02:58:39;;;;;;;;;;;;;;;8.43;100.00;100241.47;5062560;28;20055;-76
2023/10/23 03:01:15;;;;;;;10.68;4.90;;;;;;;8.30;100.00;100230.50;5067931;28;19986;-76
2023/10/23 03:03:43;;;;;;;10.48;4.95;;;;;;;8.35;100.00;100254.09;5068176;28;20066;-76
2023/10/23 03:06:13;;;;;;;9.45;4.57;;;;;;;8.28;100.00;100242.91;5075937;28;20444;-75
2023/10/23 03:08:41;;;;;;;11.68;5.03;;;;;;;8.09;100.00;100231.34;5059362;28;20524;-76
2023/10/23 03:11:10;;;;;;;10.68;4.68;;;;;;;8.14;100.00;100253.16;5065579;28;20053;-76
2023/10/23 03:13:38;;;;;;;9.32;4.90;;;;;;;8.08;100.00;100262.16;5051435;28;20072;-76
2023/10/23 03:16:07;;;;;;;10.40;4.63;;;;;;;8.02;100.00;100261.53;5054605;28;20141;-76
2023/10/23 03:18:35;;;;;;;10.80;4.32;;;;;;;7.84;100.00;100242.00;5073273;28;20044;-76
2023/10/23 03:21:03;;;;;;;10.93;4.72;;;;;;;7.98;100.00;100247.59;5081743;28;20057;-77
2023/10/23 03:23:33;;;;;;;8.48;4.00;;;;;;;8.05;100.00;100256.97;5074320;28;20072;-77
2023/10/23 03:26:03;;;;;;;13.73;4.53;;;;;;;7.92;100.00;100252.25;5084367;28;20066;-76
2023/10/23 03:28:31;;;;;;;8.13;3.90;;;;;;;7.79;100.00;100254.50;5077949;28;20051;-76
2023/10/23 03:31:01;;;;;;;10.90;3.97;;;;;;;7.74;100.00;100257.28;5054585;28;20063;-76
2023/10/23 03:33:29;;;;;;;7.53;3.47;;;;;;;7.57;100.00;100235.13;5071060;28;20063;-77
2023/10/23 03:35:57;;;;;;;8.75;3.90;;;;;;;7.59;100.00;100255.22;5068005;28;20071;-77
2023/10/23 03:38:25;;;;;;;10.10;3.97;;;;;;;7.26;100.00;100202.00;5061621;28;20044;-76
2023/10/23 03:40:58;;;;;;;8.30;3.72;;;;;;;7.29;100.00;100222.09;5057622;28;20049;-76
2023/10/23 03:43:26;;;;;;;9.82;3.70;;;;;;;7.41;100.00;100242.72;5057903;28;20047;-77
2023/10/23 03:45:55;;;;;;;7.75;4.10;;;;;;;7.50;100.00;100257.34;5070571;28;20060;-77
2023/10/23 03:48:23;;;;;;;9.38;4.25;;;;;;;7.36;100.00;100231.50;5065680;28;20057;-76
2023/10/23 03:50:51;;;;;;;8.88;4.30;;;;;;;7.46;100.00;100239.94;5065791;28;20053;-76
2023/10/23 03:53:19;;;;;;;12.80;4.43;;;;;;;7.54;100.00;100249.28;5076312;28;20102;-76
2023/10/23 03:55:47;;;;;;;8.20;4.63;;;;;;;7.44;100.00;100241.75;5089740;28;20045;-76
2023/10/23 03:58:16;;;;;;;9.57;4.88;;;;;;;7.37;100.00;100231.47;5075349;28;20048;-77
2023/10/23 04:00:44;;;;;;;10.43;4.60;;;;;;;7.38;100.00;100237.59;5086333;28;20064;-76
2023/10/23 04:03:13;;;;;;;11.93;4.70;;;;;;;7.33;100.00;100236.88;5074074;28;20599;-75
2023/10/23 04:05:41;;;;;;;10.48;4.95;;;;;;;7.22;100.00;100228.53;5091061;28;20037;-77
2023/10/23 04:08:09;;;;;;;9.77;4.90;;;;;;;7.16;100.00;100207.66;5072775;28;20075;-75
2023/10/23 04:10:37;;;;;;;8.55;4.43;;;;;;;7.35;100.00;100246.47;5081778;28;20040;-77
2023/10/23 04:13:05;;;;;;;11.93;4.88;;;;;;;7.30;100.00;100235.22;5076780;28;20029;-76
2023/10/23 04:15:35;;;;;;;7.18;4.38;;;;;;;7.33;100.00;100239.53;5080755;28;20394;-77
2023/10/23 04:18:03;;;;;;;10.60;5.03;;;;;;;7.31;100.00;100242.22;5088604;28;20140;-77
2023/10/23 04:20:31;;;;;;;10.45;4.95;;;;;;;7.32;100.00;100243.06;5075460;28;20048;-77
2023/10/23 04:22:59;;;;;;;11.13;4.53;;;;;;;7.24;100.00;100226.69;5078649;28;20067;-77
2023/10/23 04:25:27;;;;;;;9.27;5.07;;;;;;;7.30;100.00;100237.84;5072305;28;20054;-76
2023/10/23 04:27:55;;;;;;;9.38;4.72;;;;;;;7.26;100.00;100230.97;5051880;28;20124;-76
2023/10/23 04:30:23;;;;;;;11.50;4.88;;;;;;;7.40;100.00;100247.13;5062020;28;20076;-75
2023/10/23 04:32:52;;;;;;;10.50;5.05;;;;;;;7.31;100.00;100226.41;5075181;28;20044;-75
2023/10/23 04:35:20;;;;;;;8.80;5.10;;;;;;;7.41;100.00;100237.44;5079086;28;20040;-77
2023/10/23 04:37:48;;;;;;;11.13;4.82;;;;;;;7.48;100.00;100238.97;5079118;28;20044;-75
2023/10/23 04:40:16;;;;;;;8.85;4.63;;;;;;;7.49;100.00;100237.19;5066839;28;20074;-76
2023/10/23 04:42:44;;;;;;;9.50;4.35;;;;;;;7.37;100.00;100215.66;5079447;28;20044;-76
2023/10/23 04:45:12;;;;;;;6.68;4.35;;;;;;;7.50;100.00;100233.66;5075399;28;20120;-76
2023/10/23 04:47:40;;;;;;;10.10;4.20;;;;;;;7.49;100.00;100214.34;5081168;28;20037;-76
2023/10/23 04:50:11;;;;;;;9.48;4.93;;;;;;;7.43;100.00;100201.38;5074591;28;20334;-76
2023/10/23 04:52:40;;;;;;;11.02;5.07;;;;;;;7.65;100.00;100231.28;5077753;28;20131;-75
2023/10/23 04:55:09;;;;;;;11.82;4.80;;;;;;;7.63;100.00;100224.34;5077028;28;20047;-75
2023/10/23 04:57:37;;;;;;;8.60;4.88;;;;;;;7.56;100.00;100222.84;5079625;28;20126;-75
2023/10/23 05:00:06;;;;;;;11.07;5.22;;;;;;;7.55;100.00;100221.16;5069282;28;20045;-76
2023/10/23 05:02:34;;;;;;;10.98;5.15;;;;;;;7.48;100.00;100220.53;5068706;28;20131;-75
2023/10/23 05:05:02;;;;;;;8.27;4.75;;;;;;;7.49;100.00;100234.56;5080381;28;20076;-75
2023/10/23 05:07:32;;;;;;;11.23;4.70;;;;;;;7.48;100.00;100235.47;5076542;28;20061;-76
2023/10/23 05:10:04;;;;;;;11.93;5.35;;;;;;;7.42;100.00;100238.31;5072159;28;20099;-78
2023/10/23 05:12:33;;;;;;;9.25;4.80;;;;;;;7.37;100.00;100242.00;5097808;28;20048;-77
2023/10/23 05:15:01;;;;;;;8.98;5.10;;;;;;;7.26;100.00;100224.84;5078956;28;20428;-77
2023/10/23 05:17:29;;;;;;;12.02;5.63;;;;;;;7.31;100.00;100238.72;5082708;28;20040;-76
2023/10/23 05:19:58;;;;;;;10.40;5.15;;;;;;;7.30;100.00;100235.22;5069890;28;20049;-76
2023/10/23 05:22:26;;;;;;;11.55;4.70;;;;;;;7.25;100.00;100229.25;5085047;28;20044;-76
2023/10/23 05:24:56;;;;;;;8.55;4.88;;;;;;;7.06;100.00;100196.63;5088222;28;20048;-76
2023/10/23 05:27:24;;;;;;;12.20;5.40;;;;;;;7.25;100.00;100239.78;5084446;28;20036;-75
2023/10/23 05:29:52;;;;;;;9.68;4.82;;;;;;;7.24;100.00;100243.34;5084762;28;20045;-76
2023/10/23 05:32:22;;;;;;;10.43;5.47;;;;;;;7.15;100.00;100229.66;5086409;28;20041;-77
2023/10/23 05:34:50;;;;;;;9.40;5.47;;;;;;;7.20;100.00;100247.00;5081938;28;20098;-76
2023/10/23 05:37:19;;;;;;;10.38;5.55;;;;;;;7.19;100.00;100247.91;5081599;28;20036;-76
2023/10/23 05:39:47;;;;;;;9.05;5.90;;;;;;;7.13;100.00;100245.50;5074245;28;20503;-76
2023/10/23 05:42:17;;;;;;;9.65;5.18;;;;;;;7.05;100.00;100252.81;5073730;28;20048;-77
2023/10/23 05:45:03;;;;;;;12.65;5.50;;;;;;;7.01;100.00;100259.94;5080446;28;20052;-77
2023/10/23 05:47:31;;;;;;;11.95;5.75;;;;;;;6.94;100.00;100254.94;5070072;28;20136;-77
2023/10/23 05:49:59;;;;;;;10.02;6.22;;;;;;;6.93;100.00;100256.72;5063053;28;20047;-76
2023/10/23 05:52:27;;;;;;;14.35;5.63;;;;;;;6.85;100.00;100257.91;5074460;28;20045;-75
2023/10/23 05:54:55;;;;;;;12.35;6.53;;;;;;;6.78;100.00;100259.84;5071905;28;20048;-77
2023/10/23 05:57:25;;;;;;;14.27;6.32;;;;;;;6.75;100.00;100269.66;5072051;28;20036;-77
2023/10/23 05:59:55;;;;;;;13.60;6.00;;;;;;;6.47;100.00;100235.47;5045656;28;20056;-75
2023/10/23 06:02:23;;;;;;;10.15;5.95;;;;;;;6.67;100.00;100270.75;5068824;28;20041;-75
2023/10/23 06:04:51;;;;;;;10.10;5.80;;;;;;;6.56;100.00;100261.50;5071148;28;20071;-76
2023/10/23 06:07:19;;;;;;;13.13;6.15;;;;;;;6.64;100.00;100272.63;5069083;28;20400;-76
2023/10/23 06:09:48;;;;;;;9.48;5.90;;;;;;;6.56;100.00;100265.00;5063962;28;20060;-76
2023/10/23 06:12:17;;;;;;;11.10;5.47;;;;;;;6.53;100.00;100267.72;5070276;28;20043;-77
2023/10/23 06:14:47;;;;;;;16.73;6.35;;;;;;;6.58;100.00;100273.69;5073048;28;20036;-75
2023/10/23 06:17:15;;;;;;;13.85;6.43;;;;;;;6.51;100.00;100259.00;5063127;28;20041;-76
2023/10/23 06:19:43;;;;;;;11.70;6.38;;;;;;;6.71;100.00;100283.81;5060877;28;20651;-75
2023/10/23 06:22:11;;;;;;;13.90;6.05;;;;;;;6.76;100.00;100266.97;5070759;28;20048;-76
2023/10/23 06:24:40;;;;;;;11.07;5.95;;;;;;;6.88;100.00;100277.09;5075579;28;20451;-76
2023/10/23 06:27:10;;;;;;;12.32;6.85;;;;;;;6.86;100.00;100272.78;5070075;28;20047;-76
2023/10/23 06:29:38;;;;;;;15.43;5.90;;;;;;;6.76;100.00;100255.59;5059186;28;20051;-76
2023/10/23 06:32:11;;;;;;;13.15;6.78;;;;;;;6.87;100.00;100271.88;5065468;28;20542;-76
2023/10/23 06:34:38;;;;;;;11.13;5.45;;;;;;;6.71;100.00;100250.47;5069131;28;20071;-75
2023/10/23 06:37:07;;;;;;;9.52;5.85;;;;;;;6.97;100.00;100273.25;5067292;28;20040;-76
2023/10/23 06:39:44;;;;;;;9.77;5.18;;;;;;;6.93;100.00;100271.63;5060466;28;20178;-76
2023/10/23 06:42:12;;;;;;;10.65;5.47;;;;;;;7.01;100.00;100280.16;5065115;28;20140;-76
2023/10/23 06:44:40;;;;;;;9.43;6.13;;;;;;;6.85;100.00;100250.88;5071734;28;20078;-76
2023/10/23 06:47:10;;;;;;;9.68;5.15;;;;;;;7.02;100.00;100289.78;5051585;28;20080;-76
2023/10/23 06:49:39;;;;;;;8.15;5.68;;;;;;;7.06;100.00;100290.53;5062158;28;20080;-76
2023/10/23 06:52:07;;;;;;;11.23;6.35;;;;;;;7.07;100.00;100285.22;5069593;28;20102;-76
2023/10/23 06:54:36;;;;;;;9.88;6.28;;;;;;;7.08;100.00;100286.94;5070314;28;20493;-76
2023/10/23 06:57:06;;;;;;;12.27;6.55;;;;;;;7.06;100.00;100283.50;5073385;28;20141;-77
2023/10/23 06:59:35;;;;;;;12.63;6.55;;;;;;;7.08;100.00;100286.94;5063976;28;20048;-76
2023/10/23 07:02:05;;;;;;;13.35;7.00;;;;;;;7.06;100.00;100287.91;5067680;28;20100;-75
2023/10/23 07:04:37;;;;;;;12.68;6.95;;;;;;;7.04;100.00;100291.44;5065520;28;20052;-76
2023/10/23 07:07:05;;;;;;;10.77;6.97;;;;;;;7.02;100.00;100284.50;5064240;28;20052;-77
2023/10/23 07:09:49;;;;;;;13.18;6.82;;;;;;;6.90;100.00;100267.38;5058002;28;20098;-75
2023/10/23 07:12:18;;;;;;;14.05;6.50;;;;;;;7.12;100.00;100290.31;5065583;28;20158;-76
2023/10/23 07:14:46;;;;;;;12.43;6.85;;;;;;;7.12;100.00;100267.47;5080929;28;20043;-74
2023/10/23 07:17:13;;;;;;;10.57;6.38;;;;;;;7.32;100.00;100270.28;5076596;28;20184;-76
2023/10/23 07:19:44;;;;;;;11.63;6.22;;;;;;;7.43;100.00;100271.66;5066424;28;20045;-76
2023/10/23 07:22:12;;;;;;;10.23;6.00;;;;;;;7.66;100.00;100269.91;5077973;28;20032;-76
2023/10/23 07:24:41;;;;;;;9.20;5.78;;;;;;;7.77;100.00;100268.63;5072709;28;20076;-76
2023/10/23 07:27:11;;;;;;;8.88;5.35;;;;;;;7.99;100.00;100288.88;5070347;28;20052;-76
2023/10/23 07:29:40;;;;;;;7.90;5.30;;;;;;;8.07;100.00;100283.28;5064735;28;20052;-75
2023/10/23 07:32:08;;;;;;;10.05;5.25;;;;;;;7.81;100.00;100228.94;5069254;28;20045;-75
2023/10/23 07:34:36;;;;;;;7.60;5.90;;;;;;;8.11;100.00;100261.16;5069671;28;20032;-75
2023/10/23 07:37:07;;;;;;;10.82;5.68;;;;;;;8.25;100.00;100271.19;5076414;28;20041;-75
2023/10/23 07:39:36;;;;;;;9.25;5.72;;;;;;;8.43;100.00;100273.13;5075293;28;20056;-75
2023/10/23 07:42:05;;;;;;;9.85;6.03;;;;;;;8.36;100.00;100254.03;5060824;28;20082;-77
2023/10/23 07:44:34;;;;;;;10.02;5.47;;;;;;;8.58;100.00;100271.63;5071878;28;20094;-77
2023/10/23 07:47:05;;;;;;;8.00;5.22;;;;;;;8.57;100.00;100265.50;5058168;28;20059;-77
2023/10/23 07:49:34;;;;;;;13.90;6.47;;;;;;;8.54;100.00;100262.97;5063642;28;20039;-77
2023/10/23 07:52:08;;;;;;;11.25;6.55;;;;;;;8.52;100.00;100253.41;5067545;28;20412;-77
2023/10/23 07:54:36;;;;;;;14.15;7.43;;;;;;;8.56;100.00;100224.19;5065861;28;20515;-76
2023/10/23 07:57:05;;;;;;;12.77;7.93;;;;;;;8.76;100.00;100232.16;5070242;28;20051;-78
2023/10/23 07:59:33;;;;;;;11.50;7.75;;;;;;;8.96;100.00;100231.31;5081363;28;20053;-77
2023/10/23 08:02:03;;;;;;;11.63;6.75;;;;;;;9.08;100.00;100224.63;5075375;28;20125;-77
2023/10/23 08:04:32;;;;;;;11.18;6.70;;;;;;;9.17;100.00;100212.78;5068715;28;20357;-76
2023/10/23 08:07:01;;;;;;;11.85;6.68;;;;;;;9.40;100.00;100237.28;5073153;28;20101;-77
2023/10/23 08:09:32;;;;;;;10.45;6.10;;;;;;;9.43;100.00;100241.59;5066395;28;20059;-77
2023/10/23 08:12:00;;;;;;;15.33;6.40;;;;;;;9.33;100.00;100225.25;5069574;28;20472;-78
2023/10/23 08:14:30;;;;;;;12.90;6.75;;;;;;;9.32;100.00;100227.97;5070275;28;20552;-76
2023/10/23 08:16:58;;;;;;;9.95;6.80;;;;;;;9.30;100.00;100241.25;5067870;28;20131;-77
2023/10/23 08:19:27;;;;;;;10.18;6.50;;;;;;;9.30;100.00;100246.53;5080421;28;20045;-76
2023/10/23 08:21:57;;;;;;;12.68;7.57;;;;;;;9.38;100.00;100246.19;5043129;28;20044;-76
2023/10/23 08:24:25;;;;;;;10.10;6.70;;;;;;;9.52;100.00;100242.94;5069761;28;20037;-75
2023/10/23 08:26:56;;;;;;;7.97;5.53;;;;;;;9.65;100.00;100241.44;5072416;28;20049;-76
2023/10/23 08:29:25;;;;;;;11.97;7.30;;;;;;;9.77;100.00;100236.44;5067800;28;20047;-77
2023/10/23 08:31:53;;;;;;;10.52;6.78;;;;;;;9.78;100.00;100222.31;5057433;28;20045;-77
2023/10/23 08:34:22;;;;;;;12.23;7.05;;;;;;;9.86;100.00;100224.59;5069091;28;20028;-76
2023/10/23 08:36:50;;;;;;;9.50;6.85;;;;;;;9.86;100.00;100214.03;5068479;28;20047;-77
2023/10/23 08:39:20;;;;;;;10.63;7.07;;;;;;;9.94;100.00;100217.16;5067359;28;20032;-77
2023/10/23 08:41:49;;;;;;;13.90;6.97;;;;;;;9.91;100.00;100217.31;5074725;28;20045;-77
2023/10/23 08:44:19;;;;;;;10.73;7.38;;;;;;;9.92;100.00;100211.06;5073258;28;20879;-77
2023/10/23 08:46:48;;;;;;;9.27;6.55;;;;;;;10.03;100.00;100215.88;5072414;28;20048;-77
2023/10/23 08:49:19;;;;;;;8.90;6.25;;;;;;;10.21;100.00;100216.81;5068301;28;20552;-78
2023/10/23 08:51:50;;;;;;;10.90;6.68;;;;;;;10.44;100.00;100233.28;5069133;28;20045;-76
2023/10/23 08:54:21;;;;;;;12.48;6.00;;;;;;;10.42;100.00;100213.13;5055865;28;20083;-78
2023/10/23 08:57:02;;;;;;;10.38;6.40;;;;;;;10.60;100.00;100225.44;5074025;28;20246;-77
2023/10/23 08:59:32;;;;;;;9.95;6.10;;;;;;;10.64;100.00;100232.31;5063310;28;20112;-77
2023/10/23 09:02:00;;;;;;;10.25;6.18;;;;;;;10.73;100.00;100221.25;5064069;28;20051;-78
2023/10/23 09:04:31;;;;;;;9.63;6.30;;;;;;;10.78;100.00;100205.13;5069793;28;20044;-78
2023/10/23 09:07:01;;;;;;;;;;;;;;;10.87;100.00;100212.59;5070456;28;20052;-77
2023/10/23 09:09:30;;;;;;;11.05;6.47;;;;;;;10.84;100.00;100212.78;5067053;28;19924;-77
2023/10/23 09:12:03;;;;;;;14.55;6.82;;;;;;;10.68;100.00;100193.31;5063789;28;20056;-78
2023/10/23 09:14:34;;;;;;;11.23;6.40;;;;;;;10.72;100.00;100184.25;5071790;28;20540;-78
2023/10/23 09:17:03;;;;;;;;;;;;;;;10.91;100.00;100211.50;5070403;28;20044;-78
2023/10/23 09:19:36;;;;;;;10.23;6.28;;;;;;;10.95;100.00;100207.78;5070583;28;19978;-78
2023/10/23 09:22:06;;;;;;;11.15;7.15;;;;;;;11.06;100.00;100200.13;5066476;28;20501;-77
2023/10/23 09:24:36;;;;;;;8.27;5.97;;;;;;;11.07;100.00;100178.00;5071995;28;20072;-77
2023/10/23 09:27:05;;;;;;;8.20;6.10;;;;;;;11.15;100.00;100164.34;5071203;28;20028;-79
2023/10/23 09:29:35;;;;;;;8.48;5.90;;;;;;;11.39;100.00;100170.97;5067863;28;20048;-78
2023/10/23 09:32:04;;;;;;;11.77;6.10;;;;;;;11.47;100.00;100163.50;5072607;28;20053;-78
2023/10/23 09:34:33;;;;;;;11.00;6.20;;;;;;;11.55;100.00;100160.41;5066013;28;20043;-77
2023/10/23 09:37:02;;;;;;;11.68;7.28;;;;;;;11.73;100.00;100171.81;5072235;28;20045;-77
2023/10/23 09:39:31;;;;;;;11.52;5.30;;;;;;;11.68;100.00;100131.41;5074843;28;20032;-77
2023/10/23 09:42:00;;;;;;;43.70;16.23;;;;;;;11.99;100.00;100163.25;5072432;28;20052;-76
2023/10/23 09:44:30;;;;;;;8.75;4.80;;;;;;;12.10;100.00;100187.44;5073639;28;20045;-77
2023/10/23 09:47:00;;;;;;;10.63;5.47;;;;;;;12.09;100.00;100158.31;5068711;28;20112;-77
2023/10/23 09:49:32;;;;;;;;;;;;;;;12.41;100.00;100175.91;5068880;28;20147;-77
2023/10/23 09:52:01;;;;;;;7.90;5.03;;;;;;;12.43;100.00;100151.91;5060569;28;19927;-77
2023/10/23 09:54:31;;;;;;;8.13;4.78;;;;;;;12.49;100.00;100154.19;5065488;28;20049;-77
2023/10/23 09:57:04;;;;;;;7.32;5.28;;;;;;;12.63;100.00;100165.72;5072130;28;20041;-77
2023/10/23 09:59:38;;;;;;;8.98;6.00;;;;;;;12.57;100.00;100160.78;5069164;28;20048;-77
2023/10/23 10:02:10;;;;;;;9.02;5.03;;;;;;;12.60;100.00;100168.56;5064475;28;20037;-77
2023/10/23 10:04:51;;;;;;;8.45;5.53;;;;;;;12.60;100.00;100170.34;5084842;28;20140;-77
2023/10/23 10:07:23;;;;;;;6.97;5.22;;;;;;;12.55;100.00;100160.00;5078420;28;20068;-78
2023/10/23 10:09:53;;;;;;;8.02;5.30;;;;;;;12.51;100.00;100155.81;5073663;28;20063;-77
2023/10/23 10:12:22;;;;;;;10.20;5.85;;;;;;;12.61;100.00;100177.38;5067596;28;20045;-75
2023/10/23 10:14:55;;;;;;;13.73;5.85;;;;;;;12.48;100.00;100158.66;5077201;28;20139;-77
2023/10/23 10:17:27;;;;;;;10.82;5.82;;;;;;;12.52;100.00;100175.28;5077861;28;20104;-78
2023/10/23 10:19:57;;;;;;;10.98;5.63;;;;;;;12.32;100.00;100133.94;5065704;28;20068;-78
2023/10/23 10:22:28;;;;;;;11.05;5.28;;;;;;;12.54;100.00;100157.44;5065625;28;20044;-77
2023/10/23 10:24:57;;;;;;;8.55;5.22;;;;;;;12.54;100.00;100150.34;5058829;28;20044;-78
2023/10/23 10:27:26;;;;;;;9.73;5.65;;;;;;;12.55;100.00;100137.91;5076900;28;20049;-79
2023/10/23 10:29:54;;;;;;;11.52;6.00;;;;;;;12.52;100.00;100108.88;5074651;28;20091;-79
2023/10/23 10:32:26;;;;;;;10.70;5.43;;;;;;;12.86;100.00;100153.72;5067150;28;20162;-79
2023/10/23 10:34:56;;;;;;;10.20;5.47;;;;;;;12.81;100.00;100142.50;5073870;28;20053;-79
2023/10/23 10:37:27;;;;;;;7.50;5.15;;;;;;;12.89;100.00;100152.69;5069928;28;20041;-79
2023/10/23 10:40:08;;;;;;;8.32;5.53;;;;;;;12.98;100.00;100153.00;5070163;28;20045;-77
2023/10/23 10:42:43;;;;;;;9.50;5.00;;;;;;;13.08;100.00;100145.28;5070653;28;20044;-78
2023/10/23 10:45:16;;;;;;;7.50;4.47;;;;;;;13.22;100.00;100145.31;5080228;28;20127;-78
2023/10/23 10:47:51;;;;;;;9.57;4.60;;;;;;;13.28;100.00;100142.31;5074120;28;20131;-77
2023/10/23 10:50:35;;;;;;;7.45;4.97;;;;;;;13.11;100.00;100125.66;5090221;28;20112;-77
2023/10/23 10:53:05;;;;;;;7.43;4.60;;;;;;;13.18;100.00;100125.22;5067924;28;20044;-77
2023/10/23 10:55:34;;;;;;;5.77;4.50;;;;;;;13.24;100.00;100131.94;5074324;28;20056;-77
2023/10/23 10:58:04;;;;;;;5.88;4.40;;;;;;;13.22;100.00;100121.41;5074491;28;20059;-78
2023/10/23 11:00:33;;;;;;;6.95;4.30;;;;;;;13.17;100.00;100096.06;5071439;28;20041;-77
2023/10/23 11:03:03;;;;;;;6.50;4.68;;;;;;;13.34;100.00;100111.81;5067055;28;20041;-78
2023/10/23 11:05:33;;;;;;;8.60;4.78;;;;;;;13.27;100.00;100095.38;5068530;28;20056;-77
2023/10/23 11:08:03;;;;;;;11.00;4.63;;;;;;;13.18;100.00;100079.16;5075200;28;20273;-78
2023/10/23 11:10:34;;;;;;;7.53;4.50;;;;;;;13.49;100.00;100099.34;5069699;28;20416;-78
2023/10/23 11:13:03;;;;;;;10.00;4.25;;;;;;;13.62;100.00;100089.63;5064382;28;20045;-77
2023/10/23 11:15:31;;;;;;;7.32;4.20;;;;;;;13.64;100.00;100087.75;5076396;28;20057;-79
2023/10/23 11:17:59;;;;;;;8.32;4.18;;;;;;;13.62;100.00;100065.69;5072761;28;20049;-77
2023/10/23 11:20:31;;;;;;;8.88;4.07;;;;;;;13.63;100.00;100068.25;5064682;28;20052;-78
2023/10/23 11:23:04;;;;;;;4.93;3.92;;;;;;;13.73;100.00;100075.63;5070149;28;20069;-78
2023/10/23 11:25:34;;;;;;;8.65;4.15;;;;;;;13.80;100.00;100069.81;5075998;28;20055;-78
2023/10/23 11:28:06;;;;;;;5.65;4.05;;;;;;;13.79;100.00;100059.28;5067801;28;20102;-77
2023/10/23 11:30:45;;;;;;;5.93;3.80;;;;;;;13.79;100.00;100056.63;5073957;28;20128;-78